Strona główna
METAR-TAF:

METAR-TAF

Lotnisko :

Springfield-Beckley Municipal Airport

Springfield, Ohio, Stany Zjednoczone

Szerokość geograficzna: 39-50N, Długość geograficzna: 083-50W, wysokość: 321 m

Aktualna obserwacja pogody

Raport powstał 40 minut temu, godzina 05:56 UTC
Cisza
Temperatura -2°C
Wilgotność 100%
Ciśnienie 1018 hPa
Widzialność: 0.8 km
Zachmurzenie całkowite na wysokości 200 ft
marznąca mgła

METAR: KSGH 250556Z AUTO 00000KT 1/2SM FZFG OVC002 M02/M02 A3005 RMK AO2 SLP190 60000 T10171017 11017 21028 58005

czas: 01:36 (06:36 UTC)


TAF: brakujący

Obserwacja i prognoza pogody dla ponad 4000 lotnisk (raport METAR i TAF).

Dostępne stacje oznaczono żółtymi i czerwonymi punktami na mapie.

Najedź kursorem aby zobaczyć nazwę stacji.

Kliknij aby zobaczyć obserwacje i prognozy pogody.

Aby zmienić mapę: kliknij na zielony przycisk z czarnym krzyżykiem, aby powiększyć; na zielony przycisk z myślnikiem, aby pomniejszyć; na zielone strzałki, aby przejść do map sąsiednich.


METAR-TAF: